KBYG/BYG METAR and TAF weather

Enter ICAO airport designator
Station Type Date Time Source
KBYG METAR 2021/04/13 21:53 UTC NOAA

KBYG 132153Z AUTO 34019G30KT 10SM SCT042 02/M09 A3020 RMK AO2 PK WND 35031/2104 SLP254 T00171094


Station Type Date Time Source
KBYG Decoded METAR 2021/04/13 21:53 UTC NOAA

BUFFALO JOHNSON COUNTY AIRPORT , WY, United States (KBYG) 44-23N 106-43W 1497M
Apr 13, 2021 - 05:53 PM EDT / 2021.04.13 2153 UTC
Wind: from the NNW (340 degrees) at 22 MPH (19 KT) gusting to 35 MPH (30 KT):0
Visibility: 10 mile(s):0
Sky conditions: partly cloudy
Temperature: 35.1 F (1.7 C)
Dew Point: 15.1 F (-9.4 C)
Relative Humidity: 43%
Pressure (altimeter): 30.2 in. Hg (1022 hPa)
ob: KBYG 132153Z AUTO 34019G30KT 10SM SCT042 02/M09 A3020 RMK AO2 PK WND 35031/2104 SLP254 T00171094
cycle: 22

Station Type Date Time Source
KBYG TAF UTC NOAA

Error!

Example: see airport list